Time;durP1;ratioP1;P1;durP2;ratioP2;P2;SDS_P1;SDS_P2;PMS_P1;PMS_P2;Temp;Humidity;BMP_temperature;BMP_pressure;BME280_temperature;BME280_humidity;BME280_pressure;Samples;Min_cycle;Max_cycle;Signal;HPM_P1;HPM_P2
2024/01/25 00:02:08;;;;;;;40.22;9.95;;;9.30;99.90;;;;;;4995954;28;20311;-56
2024/01/25 00:04:34;;;;;;;38.53;9.73;;;9.30;99.90;;;;;;4995621;28;20268;-53
2024/01/25 00:07:00;;;;;;;34.05;8.35;;;9.20;99.90;;;;;;4995622;28;20173;-55
2024/01/25 00:09:25;;;;;;;34.83;9.98;;;9.10;99.90;;;;;;4995527;28;20260;-56
2024/01/25 00:11:51;;;;;;;37.13;9.82;;;9.00;99.90;;;;;;4995472;28;20173;-56
2024/01/25 00:14:16;;;;;;;33.75;9.82;;;8.90;99.90;;;;;;4995296;28;20176;-53
2024/01/25 00:16:42;;;;;;;37.80;11.02;;;8.90;99.90;;;;;;4995364;28;20746;-56
2024/01/25 00:19:08;;;;;;;36.03;9.68;;;8.90;99.90;;;;;;4995540;28;20256;-54
2024/01/25 00:21:34;;;;;;;40.30;10.50;;;8.90;99.90;;;;;;4995295;28;20184;-55
2024/01/25 00:24:00;;;;;;;42.22;9.88;;;8.90;99.90;;;;;;4995248;28;20185;-54
2024/01/25 00:26:25;;;;;;;30.67;9.15;;;8.80;99.90;;;;;;4995210;28;20216;-56
2024/01/25 00:28:51;;;;;;;38.80;9.85;;;8.70;99.90;;;;;;4995480;28;20260;-56
2024/01/25 00:31:16;;;;;;;42.78;9.82;;;8.70;99.90;;;;;;4995313;28;20178;-55
2024/01/25 00:33:42;;;;;;;34.88;9.18;;;8.70;99.90;;;;;;4995515;28;20651;-56
2024/01/25 00:36:09;;;;;;;39.72;10.25;;;8.60;99.90;;;;;;4995104;28;20185;-54
2024/01/25 00:38:35;;;;;;;38.70;8.98;;;8.50;99.90;;;;;;4995063;28;20181;-56
2024/01/25 00:41:01;;;;;;;40.08;9.93;;;8.50;99.90;;;;;;4995074;28;20184;-56
2024/01/25 00:43:27;;;;;;;37.97;8.90;;;8.40;99.90;;;;;;4994794;28;20177;-54
2024/01/25 00:45:53;;;;;;;36.70;9.00;;;8.50;99.90;;;;;;4994656;28;20279;-55
2024/01/25 00:48:19;;;;;;;35.78;8.98;;;8.40;99.90;;;;;;4994778;28;20265;-56
2024/01/25 00:50:45;;;;;;;40.70;11.70;;;8.50;99.90;;;;;;4994861;28;20177;-56
2024/01/25 00:53:11;;;;;;;37.35;9.18;;;8.60;99.90;;;;;;4994839;28;20264;-55
2024/01/25 00:55:37;;;;;;;42.30;8.80;;;8.40;99.90;;;;;;4994608;28;20592;-55
2024/01/25 00:58:03;;;;;;;38.60;8.70;;;8.30;99.90;;;;;;4994580;28;20673;-56
2024/01/25 01:00:29;;;;;;;44.35;8.93;;;8.20;99.90;;;;;;4994391;28;20670;-53
2024/01/25 01:02:58;;;;;;;31.73;8.20;;;8.10;99.90;;;;;;4994751;28;20537;-55
2024/01/25 01:05:25;;;;;;;33.47;9.65;;;8.00;99.90;;;;;;4994378;28;20205;-55
2024/01/25 01:07:51;;;;;;;43.25;8.82;;;8.00;99.90;;;;;;4994366;28;20185;-55
2024/01/25 01:10:16;;;;;;;33.63;7.35;;;8.00;99.90;;;;;;4994612;28;20173;-53
2024/01/25 01:12:42;;;;;;;34.80;8.25;;;7.90;99.90;;;;;;4994114;28;20260;-55
2024/01/25 01:15:08;;;;;;;32.00;7.90;;;7.90;99.90;;;;;;4994443;28;20235;-55
2024/01/25 01:17:34;;;;;;;38.33;8.25;;;7.90;99.90;;;;;;4994418;28;20184;-54
2024/01/25 01:19:59;;;;;;;33.58;8.32;;;7.80;99.90;;;;;;4994436;28;20543;-55
2024/01/25 01:22:25;;;;;;;38.47;8.70;;;7.70;99.90;;;;;;4994310;28;20173;-56
2024/01/25 01:24:51;;;;;;;34.80;7.75;;;7.80;99.90;;;;;;4994106;28;20208;-55
2024/01/25 01:27:16;;;;;;;34.85;7.53;;;7.70;99.90;;;;;;4992751;28;20173;-56
2024/01/25 01:29:42;;;;;;;32.50;7.88;;;7.80;99.90;;;;;;4995109;28;20324;-55
2024/01/25 01:32:08;;;;;;;39.85;8.75;;;7.80;99.90;;;;;;4994879;28;20177;-55
2024/01/25 01:34:33;;;;;;;31.55;7.88;;;7.70;99.90;;;;;;4994726;28;20174;-56
2024/01/25 01:36:59;;;;;;;33.25;8.65;;;7.70;99.90;;;;;;4994782;28;20609;-56
2024/01/25 01:39:26;;;;;;;34.05;8.23;;;7.60;99.90;;;;;;4994695;28;20183;-56
2024/01/25 01:41:51;;;;;;;33.58;8.93;;;7.60;99.90;;;;;;4994405;28;20215;-56
2024/01/25 01:44:17;;;;;;;32.38;8.13;;;7.50;99.90;;;;;;4994779;28;20204;-55
2024/01/25 01:46:43;;;;;;;35.55;8.38;;;7.50;99.90;;;;;;4994641;28;20178;-54
2024/01/25 01:49:12;;;;;;;32.90;8.48;;;7.50;99.90;;;;;;4994495;28;20190;-55
2024/01/25 01:51:39;;;;;;;29.48;7.68;;;7.40;99.90;;;;;;4994443;28;20692;-55
2024/01/25 01:54:07;;;;;;;31.23;8.18;;;7.40;99.90;;;;;;4994360;28;20207;-51
2024/01/25 01:56:33;;;;;;;33.35;7.93;;;7.30;99.90;;;;;;4994161;28;20547;-56
2024/01/25 01:59:04;;;;;;;33.80;7.53;;;7.30;99.90;;;;;;4994417;28;20173;-54
2024/01/25 02:01:30;;;;;;;31.63;8.02;;;7.30;99.90;;;;;;4994346;28;20653;-55
2024/01/25 02:03:56;;;;;;;24.95;6.70;;;7.30;99.90;;;;;;4994309;28;20176;-53
2024/01/25 02:06:25;;;;;;;29.70;6.85;;;7.30;99.90;;;;;;4994067;28;20299;-54
2024/01/25 02:08:53;;;;;;;33.53;7.60;;;7.20;99.90;;;;;;4994138;28;20170;-54
2024/01/25 02:11:19;;;;;;;33.42;7.53;;;7.20;99.90;;;;;;4994292;28;20184;-56
2024/01/25 02:13:45;;;;;;;28.83;7.70;;;7.10;99.90;;;;;;4994235;28;20195;-55
2024/01/25 02:16:11;;;;;;;37.05;7.93;;;7.20;99.90;;;;;;4994145;28;20173;-56
2024/01/25 02:18:37;;;;;;;35.20;8.05;;;7.20;99.90;;;;;;4994276;28;20175;-56
2024/01/25 02:21:03;;;;;;;30.65;7.68;;;7.10;99.90;;;;;;4993578;28;20653;-55
2024/01/25 02:23:29;;;;;;;34.10;8.38;;;7.10;99.90;;;;;;4993829;28;20181;-55
2024/01/25 02:25:55;;;;;;;29.88;7.10;;;7.10;99.90;;;;;;4994008;28;20220;-55
2024/01/25 02:28:21;;;;;;;33.30;8.68;;;7.10;99.90;;;;;;4994156;28;20657;-56
2024/01/25 02:30:46;;;;;;;32.63;8.23;;;7.10;99.90;;;;;;4994226;28;20188;-56
2024/01/25 02:33:12;;;;;;;38.92;8.02;;;7.10;99.90;;;;;;4994181;28;20540;-56
2024/01/25 02:35:38;;;;;;;31.35;7.75;;;7.10;99.90;;;;;;4993867;28;20543;-56
2024/01/25 02:38:04;;;;;;;36.85;6.68;;;7.10;99.90;;;;;;4993677;28;20194;-54
2024/01/25 02:40:30;;;;;;;29.75;7.10;;;7.00;99.90;;;;;;4993959;28;20199;-54
2024/01/25 02:42:58;;;;;;;35.67;8.23;;;7.00;99.90;;;;;;4993916;28;20227;-55
2024/01/25 02:45:23;;;;;;;30.48;8.25;;;6.90;99.90;;;;;;4975895;28;20213;-54
2024/01/25 02:47:49;;;;;;;32.67;7.30;;;6.90;99.90;;;;;;4993735;28;20671;-56
2024/01/25 02:50:15;;;;;;;26.17;6.57;;;7.00;99.90;;;;;;4993666;28;20545;-55
2024/01/25 02:52:41;;;;;;;30.20;6.80;;;7.00;99.90;;;;;;4993676;28;20181;-56
2024/01/25 02:55:07;;;;;;;33.38;6.95;;;6.90;99.90;;;;;;4993862;28;20177;-57
2024/01/25 02:57:33;;;;;;;32.55;7.63;;;6.80;99.90;;;;;;4993894;28;20173;-57
2024/01/25 02:59:59;;;;;;;38.67;7.78;;;6.80;99.90;;;;;;4993756;28;20199;-56
2024/01/25 03:02:24;;;;;;;31.33;7.78;;;6.80;99.90;;;;;;4993379;28;20232;-54
2024/01/25 03:04:50;;;;;;;33.15;8.50;;;6.70;99.90;;;;;;4993521;28;20237;-54
2024/01/25 03:07:16;;;;;;;29.15;7.60;;;6.70;99.90;;;;;;4993557;28;20181;-56
2024/01/25 03:09:41;;;;;;;25.92;7.07;;;6.60;99.90;;;;;;4993712;28;20178;-55
2024/01/25 03:12:07;;;;;;;28.15;7.25;;;6.70;99.90;;;;;;4993664;28;20191;-57
2024/01/25 03:14:33;;;;;;;35.40;7.45;;;6.70;99.90;;;;;;4993402;28;20243;-56
2024/01/25 03:16:59;;;;;;;31.83;7.10;;;6.70;99.90;;;;;;4993558;28;20186;-55
2024/01/25 03:19:26;;;;;;;24.15;7.10;;;6.70;99.90;;;;;;4993598;28;20228;-55
2024/01/25 03:21:52;;;;;;;28.08;6.60;;;6.60;99.90;;;;;;4993363;28;20212;-56
2024/01/25 03:24:18;;;;;;;29.92;6.68;;;6.50;99.90;;;;;;4993547;28;20232;-56
2024/01/25 03:26:43;;;;;;;33.88;7.20;;;6.50;99.90;;;;;;4993575;28;20193;-55
2024/01/25 03:29:09;;;;;;;23.77;6.15;;;6.50;99.90;;;;;;4993508;28;20184;-56
2024/01/25 03:31:36;;;;;;;22.98;6.60;;;6.40;99.90;;;;;;4993546;28;20181;-57
2024/01/25 03:34:05;;;;;;;28.80;7.65;;;6.40;99.90;;;;;;4995843;28;20231;-57
2024/01/25 03:36:31;;;;;;;32.47;8.13;;;6.40;99.90;;;;;;4996863;28;20195;-56
2024/01/25 03:38:57;;;;;;;31.70;7.15;;;6.40;99.90;;;;;;4997077;28;20177;-55
2024/01/25 03:41:23;;;;;;;31.40;7.88;;;6.30;99.90;;;;;;4996824;28;20174;-55
2024/01/25 03:43:49;;;;;;;33.67;8.43;;;6.30;99.90;;;;;;4996861;28;20177;-56
2024/01/25 03:46:15;;;;;;;33.45;7.22;;;6.30;99.90;;;;;;4996606;28;20220;-56
2024/01/25 03:48:41;;;;;;;28.92;7.15;;;6.40;99.90;;;;;;4996748;28;20173;-55
2024/01/25 03:51:06;;;;;;;25.67;6.65;;;6.40;99.90;;;;;;4996582;28;20663;-57
2024/01/25 03:53:32;;;;;;;28.27;7.68;;;6.40;99.90;;;;;;4995631;28;20181;-57
2024/01/25 03:55:57;;;;;;;30.30;6.82;;;6.30;99.90;;;;;;4996753;28;20653;-55
2024/01/25 03:58:23;;;;;;;29.10;7.55;;;6.30;99.90;;;;;;4996680;28;20177;-57
2024/01/25 04:00:49;;;;;;;25.95;7.45;;;6.20;99.90;;;;;;4996629;28;20311;-55
2024/01/25 04:03:14;;;;;;;26.35;6.45;;;6.20;99.90;;;;;;4996491;28;20266;-56
2024/01/25 04:05:40;;;;;;;25.63;7.55;;;6.20;99.90;;;;;;4996263;28;20263;-56
2024/01/25 04:08:06;;;;;;;26.50;7.30;;;6.00;99.90;;;;;;4996305;28;20254;-56
2024/01/25 04:10:32;;;;;;;26.23;6.78;;;6.10;99.90;;;;;;4996479;28;20177;-54
2024/01/25 04:13:00;;;;;;;27.58;7.07;;;6.10;99.90;;;;;;4996217;28;20178;-55
2024/01/25 04:15:26;;;;;;;27.20;7.00;;;6.10;99.90;;;;;;4996176;28;20643;-54
2024/01/25 04:17:53;;;;;;;22.27;6.70;;;6.00;99.90;;;;;;4995067;28;20192;-55
2024/01/25 04:20:18;;;;;;;25.08;6.97;;;6.00;99.90;;;;;;4995969;28;20191;-55
2024/01/25 04:22:44;;;;;;;33.15;7.28;;;6.10;99.90;;;;;;4996240;28;20260;-55
2024/01/25 04:25:11;;;;;;;30.17;7.22;;;6.10;99.90;;;;;;4995991;28;20685;-56
2024/01/25 04:27:39;;;;;;;26.15;6.25;;;6.10;99.90;;;;;;4996007;28;20207;-55
2024/01/25 04:30:06;;;;;;;32.08;6.13;;;6.00;99.90;;;;;;4996030;28;20181;-56
2024/01/25 04:32:32;;;;;;;20.98;5.88;;;6.00;99.90;;;;;;4995893;28;20197;-55
2024/01/25 04:34:58;;;;;;;26.35;6.13;;;5.90;99.90;;;;;;4995738;28;20258;-56
2024/01/25 04:37:23;;;;;;;30.58;5.70;;;5.90;99.90;;;;;;4996060;28;20185;-55
2024/01/25 04:39:49;;;;;;;21.23;5.82;;;5.90;99.90;;;;;;4995806;28;20169;-56
2024/01/25 04:42:15;;;;;;;27.45;6.72;;;5.90;99.90;;;;;;4995827;28;20227;-55
2024/01/25 04:44:40;;;;;;;21.38;6.18;;;5.90;99.90;;;;;;4995319;28;20176;-57
2024/01/25 04:47:06;;;;;;;24.73;6.28;;;5.90;99.90;;;;;;4995608;28;20185;-55
2024/01/25 04:49:32;;;;;;;25.90;6.00;;;5.80;99.90;;;;;;4995537;28;20213;-56
2024/01/25 04:51:57;;;;;;;23.38;6.05;;;5.90;99.90;;;;;;4995744;28;20188;-56
2024/01/25 04:54:23;;;;;;;30.83;6.80;;;5.80;99.90;;;;;;4995716;28;20185;-56
2024/01/25 04:56:49;;;;;;;24.75;5.97;;;5.80;99.90;;;;;;4995558;28;20545;-54
2024/01/25 04:59:14;;;;;;;29.10;6.95;;;5.80;99.90;;;;;;4995340;28;20204;-56
2024/01/25 05:01:40;;;;;;;24.02;5.28;;;5.80;99.90;;;;;;4995512;28;20686;-56
2024/01/25 05:04:05;;;;;;;26.08;6.25;;;5.80;99.90;;;;;;4995478;28;20189;-56
2024/01/25 05:06:32;;;;;;;24.55;5.53;;;5.80;99.90;;;;;;4995080;28;20224;-55
2024/01/25 05:08:58;;;;;;;23.40;5.60;;;5.70;99.90;;;;;;4995169;28;20177;-55
2024/01/25 05:11:23;;;;;;;24.48;5.95;;;5.70;99.90;;;;;;4995300;28;20185;-55
2024/01/25 05:13:49;;;;;;;22.20;5.30;;;5.70;99.90;;;;;;4995344;28;20251;-56
2024/01/25 05:16:15;;;;;;;23.75;5.70;;;5.60;99.90;;;;;;4995118;28;20570;-55
2024/01/25 05:18:40;;;;;;;20.98;5.40;;;5.60;99.90;;;;;;4994911;28;20181;-54
2024/01/25 05:21:06;;;;;;;21.77;5.85;;;5.60;99.90;;;;;;4995113;28;20224;-55
2024/01/25 05:23:32;;;;;;;18.80;5.65;;;5.60;99.90;;;;;;4994910;28;20180;-56
2024/01/25 05:25:58;;;;;;;26.30;6.05;;;5.50;99.90;;;;;;4994907;28;20216;-54
2024/01/25 05:28:24;;;;;;;24.70;6.22;;;5.50;99.90;;;;;;4994779;28;20287;-55
2024/01/25 05:30:50;;;;;;;19.00;5.57;;;5.50;99.90;;;;;;4994857;28;20273;-55
2024/01/25 05:33:16;;;;;;;20.70;5.68;;;5.60;99.90;;;;;;4994695;28;20571;-56
2024/01/25 05:35:42;;;;;;;22.15;5.85;;;5.50;99.90;;;;;;4994611;28;20220;-55
2024/01/25 05:38:07;;;;;;;21.45;6.47;;;5.50;99.90;;;;;;4994806;28;20185;-55
2024/01/25 05:40:33;;;;;;;16.92;5.38;;;5.40;99.90;;;;;;4994794;28;20202;-52
2024/01/25 05:42:59;;;;;;;26.08;6.25;;;5.40;99.90;;;;;;4994653;28;20177;-56
2024/01/25 05:45:26;;;;;;;25.63;5.93;;;5.40;99.90;;;;;;4994494;28;20215;-57
2024/01/25 05:47:52;;;;;;;26.88;7.32;;;5.40;99.90;;;;;;4994477;28;20188;-54
2024/01/25 05:50:18;;;;;;;31.63;7.30;;;5.50;99.90;;;;;;4994665;28;20267;-54
2024/01/25 05:52:44;;;;;;;23.27;7.05;;;5.50;99.90;;;;;;4994520;28;20221;-55
2024/01/25 05:55:09;;;;;;;24.17;6.93;;;5.60;99.90;;;;;;4993919;28;20216;-56
2024/01/25 05:57:36;;;;;;;23.90;7.03;;;5.60;99.90;;;;;;4994310;28;20173;-56
2024/01/25 06:00:03;;;;;;;24.15;6.80;;;5.60;99.90;;;;;;4994352;28;20180;-56
2024/01/25 06:02:29;;;;;;;22.02;6.30;;;5.60;99.90;;;;;;4994061;28;20396;-56
2024/01/25 06:04:58;;;;;;;23.17;6.63;;;5.60;99.90;;;;;;4992870;28;20697;-58
2024/01/25 06:07:23;;;;;;;34.33;7.30;;;5.60;99.90;;;;;;4994316;28;20185;-59
2024/01/25 06:09:49;;;;;;;24.73;7.38;;;5.60;99.90;;;;;;4994202;28;20232;-59
2024/01/25 06:12:15;;;;;;;22.25;6.70;;;5.60;99.90;;;;;;4992885;28;20650;-60
2024/01/25 06:14:40;;;;;;;28.48;6.97;;;5.70;99.90;;;;;;4994250;28;20180;-58
2024/01/25 06:17:06;;;;;;;27.48;6.88;;;5.70;99.90;;;;;;4994529;28;20173;-59
2024/01/25 06:19:34;;;;;;;21.50;7.65;;;5.60;99.90;;;;;;4993897;28;20239;-58
2024/01/25 06:22:00;;;;;;;30.27;9.07;;;5.60;99.90;;;;;;4994042;28;20185;-58
2024/01/25 06:24:25;;;;;;;33.80;9.73;;;5.70;99.90;;;;;;4993993;28;20183;-58
2024/01/25 06:26:52;;;;;;;26.60;8.15;;;5.70;99.90;;;;;;4993982;28;20189;-59
2024/01/25 06:29:18;;;;;;;25.00;7.68;;;5.70;99.90;;;;;;4993918;28;20177;-59
2024/01/25 06:31:44;;;;;;;25.70;7.38;;;5.70;99.90;;;;;;4993754;28;20719;-58
2024/01/25 06:34:10;;;;;;;32.92;7.10;;;5.70;99.90;;;;;;4994036;28;20180;-58
2024/01/25 06:36:36;;;;;;;31.85;7.70;;;5.70;99.90;;;;;;4993973;28;20207;-59
2024/01/25 06:39:04;;;;;;;26.88;6.53;;;5.80;99.90;;;;;;4993980;28;20185;-58
2024/01/25 06:41:29;;;;;;;27.67;6.93;;;5.80;99.90;;;;;;4994024;28;20511;-58
2024/01/25 06:43:55;;;;;;;29.58;7.90;;;5.80;99.90;;;;;;4993875;28;20177;-58
2024/01/25 06:46:21;;;;;;;30.15;8.13;;;5.70;99.90;;;;;;4993638;28;20204;-58
2024/01/25 06:48:47;;;;;;;28.67;7.65;;;5.70;99.90;;;;;;4993909;28;20192;-59
2024/01/25 06:51:14;;;;;;;28.63;7.78;;;5.70;99.90;;;;;;4993903;28;20177;-58
2024/01/25 06:53:40;;;;;;;29.40;7.85;;;5.60;99.90;;;;;;4993939;28;20239;-59
2024/01/25 06:56:06;;;;;;;23.02;7.15;;;5.70;99.90;;;;;;4993709;28;20685;-57
2024/01/25 06:58:32;;;;;;;22.80;7.72;;;5.80;99.90;;;;;;4993533;28;20195;-59
2024/01/25 07:00:58;;;;;;;25.35;7.57;;;5.80;99.90;;;;;;4993473;28;20323;-58
2024/01/25 07:03:24;;;;;;;28.27;8.07;;;5.80;99.90;;;;;;4993792;28;20177;-58
2024/01/25 07:05:49;;;;;;;24.38;7.05;;;5.80;99.90;;;;;;4993682;28;20217;-58
2024/01/25 07:08:15;;;;;;;25.48;7.10;;;5.80;99.90;;;;;;4995035;28;20215;-59
2024/01/25 07:10:41;;;;;;;25.08;7.10;;;5.90;99.90;;;;;;4986852;28;20209;-58
2024/01/25 07:13:07;;;;;;;22.42;6.97;;;5.90;99.90;;;;;;4986542;28;20258;-59
2024/01/25 07:15:33;;;;;;;25.40;7.20;;;5.90;99.90;;;;;;4987863;28;20279;-59
2024/01/25 07:17:59;;;;;;;27.08;7.70;;;5.90;99.90;;;;;;4986691;28;20179;-59
2024/01/25 07:20:24;;;;;;;26.27;6.93;;;5.80;99.90;;;;;;4987010;28;20586;-58
2024/01/25 07:22:50;;;;;;;31.52;8.00;;;5.90;99.90;;;;;;4987979;28;20265;-58
2024/01/25 07:25:16;;;;;;;23.98;7.28;;;5.90;99.90;;;;;;4994036;28;20216;-58
2024/01/25 07:27:45;;;;;;;28.20;7.55;;;5.90;99.90;;;;;;4996990;28;20642;-58
2024/01/25 07:30:12;;;;;;;31.80;8.30;;;5.90;99.90;;;;;;4996830;28;20642;-58
2024/01/25 07:32:41;;;;;;;39.22;14.10;;;5.90;99.90;;;;;;4996887;28;20642;-59
2024/01/25 07:35:07;;;;;;;38.05;11.05;;;5.90;99.90;;;;;;4996918;28;20196;-58
2024/01/25 07:37:32;;;;;;;34.58;10.98;;;5.90;99.90;;;;;;4996878;28;20188;-58
2024/01/25 07:39:58;;;;;;;28.27;8.32;;;5.90;99.90;;;;;;4996333;28;20209;-58
2024/01/25 07:42:24;;;;;;;23.67;8.20;;;5.90;99.90;;;;;;4994867;28;20242;-58
2024/01/25 07:44:49;;;;;;;27.38;8.02;;;5.80;99.90;;;;;;4995198;28;20213;-59
2024/01/25 07:47:15;;;;;;;33.65;8.80;;;5.80;99.90;;;;;;4997066;28;20191;-58
2024/01/25 07:49:41;;;;;;;25.30;7.35;;;5.80;99.90;;;;;;4996879;28;20174;-58
2024/01/25 07:52:06;;;;;;;27.80;7.55;;;5.90;99.90;;;;;;4996777;28;20173;-58
2024/01/25 07:54:32;;;;;;;32.63;8.25;;;5.90;99.90;;;;;;4996397;28;20634;-58
2024/01/25 07:56:58;;;;;;;28.20;8.20;;;5.90;99.90;;;;;;4996607;28;20545;-58
2024/01/25 07:59:23;;;;;;;36.60;8.32;;;5.90;99.90;;;;;;4996434;28;20185;-58
2024/01/25 08:01:49;;;;;;;26.85;8.95;;;5.90;99.90;;;;;;4996426;28;20677;-58
2024/01/25 08:04:15;;;;;;;26.48;7.07;;;6.00;99.90;;;;;;4996457;28;20227;-59
2024/01/25 08:06:40;;;;;;;19.88;6.97;;;5.90;99.90;;;;;;4996400;28;20362;-58
2024/01/25 08:09:06;;;;;;;29.48;7.75;;;5.90;99.90;;;;;;4996422;28;20216;-58
2024/01/25 08:11:33;;;;;;;28.55;8.30;;;6.00;99.90;;;;;;4996301;28;20187;-58
2024/01/25 08:13:59;;;;;;;30.80;9.38;;;6.10;99.90;;;;;;4996139;28;20184;-58
2024/01/25 08:16:25;;;;;;;27.98;8.75;;;6.10;99.90;;;;;;4996329;28;20681;-58
2024/01/25 08:18:50;;;;;;;34.35;9.18;;;6.20;99.90;;;;;;4995596;28;20176;-58
2024/01/25 08:21:16;;;;;;;26.30;8.27;;;6.30;99.90;;;;;;4996123;28;20661;-58
2024/01/25 08:23:42;;;;;;;25.70;7.55;;;6.20;99.90;;;;;;4996054;28;20642;-58
2024/01/25 08:26:09;;;;;;;23.77;8.20;;;6.30;99.90;;;;;;4995750;28;20202;-56
2024/01/25 08:28:38;;;;;;;35.15;9.00;;;6.30;99.90;;;;;;4994602;28;20653;-58
2024/01/25 08:31:04;;;;;;;31.92;8.90;;;6.40;99.90;;;;;;4995979;28;20177;-58
2024/01/25 08:33:30;;;;;;;34.83;11.10;;;6.50;99.90;;;;;;4995345;28;20203;-58
2024/01/25 08:35:56;;;;;;;29.27;10.02;;;6.60;99.90;;;;;;4994527;28;20189;-58
2024/01/25 08:38:22;;;;;;;33.72;11.05;;;6.70;99.90;;;;;;4995880;28;20682;-59
2024/01/25 08:40:47;;;;;;;29.17;10.10;;;6.80;99.90;;;;;;4995725;28;20176;-58
2024/01/25 08:43:13;;;;;;;35.60;11.50;;;6.80;99.90;;;;;;4995886;28;20177;-59
2024/01/25 08:45:38;;;;;;;30.58;10.95;;;6.90;99.90;;;;;;4995770;28;20212;-58
2024/01/25 08:48:05;;;;;;;30.15;10.35;;;7.00;99.90;;;;;;4995568;28;20178;-58
2024/01/25 08:50:31;;;;;;;24.88;9.65;;;7.00;99.90;;;;;;4995774;28;20268;-58
2024/01/25 08:52:57;;;;;;;22.42;8.98;;;7.10;99.90;;;;;;4995583;28;20260;-58
2024/01/25 08:55:22;;;;;;;18.40;9.32;;;7.00;99.90;;;;;;4995436;28;20200;-58
2024/01/25 08:57:49;;;;;;;21.83;9.02;;;7.10;99.90;;;;;;4995449;28;20658;-59
2024/01/25 09:00:15;;;;;;;17.67;9.85;;;7.10;99.90;;;;;;4995354;28;20180;-59
2024/01/25 09:02:41;;;;;;;25.08;10.02;;;7.10;99.90;;;;;;4995693;28;20185;-57
2024/01/25 09:05:08;;;;;;;21.70;9.57;;;7.20;99.90;;;;;;4995263;28;20632;-58
2024/01/25 09:07:34;;;;;;;21.92;8.70;;;7.30;99.90;;;;;;4995208;28;20185;-58
2024/01/25 09:10:00;;;;;;;16.73;8.85;;;7.20;99.90;;;;;;4995220;28;20173;-59
2024/01/25 09:12:25;;;;;;;16.45;7.97;;;7.30;99.90;;;;;;4995027;28;20185;-58
2024/01/25 09:14:51;;;;;;;14.45;8.25;;;7.30;99.90;;;;;;4995057;28;20173;-59
2024/01/25 09:17:21;;;;;;;15.10;9.00;;;7.30;99.90;;;;;;4995159;28;20176;-58
2024/01/25 09:19:49;;;;;;;13.90;7.50;;;7.40;99.90;;;;;;4995111;28;20185;-58
2024/01/25 09:22:17;;;;;;;11.13;8.10;;;7.40;99.90;;;;;;4994863;28;20235;-58
2024/01/25 09:24:43;;;;;;;12.63;7.90;;;7.40;99.90;;;;;;4994785;28;20276;-58
2024/01/25 09:27:09;;;;;;;11.63;7.63;;;7.50;99.90;;;;;;4994787;28;20178;-59
2024/01/25 09:29:35;;;;;;;11.30;8.15;;;7.50;99.90;;;;;;4995146;28;20177;-58
2024/01/25 09:32:00;;;;;;;12.75;8.65;;;7.50;99.90;;;;;;4994279;28;20260;-59
2024/01/25 09:34:26;;;;;;;11.65;8.38;;;7.40;99.90;;;;;;4994796;28;20209;-58
2024/01/25 09:36:52;;;;;;;13.25;8.40;;;7.50;99.90;;;;;;4994701;28;20177;-59
2024/01/25 09:39:17;;;;;;;14.43;8.18;;;7.60;99.90;;;;;;4994648;28;20185;-58
2024/01/25 09:41:43;;;;;;;10.98;8.50;;;7.60;99.90;;;;;;4994414;28;20181;-59
2024/01/25 09:44:09;;;;;;;12.85;8.52;;;7.60;99.90;;;;;;4994809;28;20184;-59
2024/01/25 09:46:35;;;;;;;12.43;9.15;;;7.70;99.90;;;;;;4994536;28;20209;-59
2024/01/25 09:49:01;;;;;;;12.45;9.00;;;7.70;99.90;;;;;;4994658;28;20174;-59
2024/01/25 09:51:37;;;;;;;13.40;9.05;;;7.80;99.90;;;;;;4994807;28;20264;-59
2024/01/25 09:54:04;;;;;;;14.82;9.70;;;7.80;99.90;;;;;;4994362;28;20537;-58
2024/01/25 09:56:32;;;;;;;13.77;10.05;;;7.80;99.90;;;;;;4994243;28;20192;-58
2024/01/25 09:58:58;;;;;;;16.48;10.13;;;7.90;99.90;;;;;;4976843;28;20208;-58
2024/01/25 10:01:24;;;;;;;11.88;9.63;;;8.00;99.90;;;;;;4994003;28;20693;-58
2024/01/25 10:03:50;;;;;;;14.80;10.65;;;8.10;99.90;;;;;;4994534;28;20508;-58
2024/01/25 10:06:17;;;;;;;12.15;9.57;;;8.10;99.90;;;;;;4993791;28;20211;-58
2024/01/25 10:08:43;;;;;;;20.77;10.52;;;8.10;99.90;;;;;;4993675;28;20193;-58
2024/01/25 10:11:11;;;;;;;15.35;9.57;;;8.20;99.90;;;;;;4994068;28;20700;-58
2024/01/25 10:13:56;;;;;;;15.25;9.80;;;8.20;99.90;;;;;;4994269;28;20223;-59
2024/01/25 10:16:22;;;;;;;14.40;10.35;;;8.20;99.90;;;;;;4994112;28;20235;-58
2024/01/25 10:18:48;;;;;;;12.40;8.90;;;8.20;99.90;;;;;;4994078;28;20177;-58
2024/01/25 10:21:15;;;;;;;15.30;10.02;;;8.30;99.90;;;;;;4993867;28;20177;-58
2024/01/25 10:23:43;;;;;;;12.68;9.27;;;8.40;99.90;;;;;;4994243;28;20192;-59
2024/01/25 10:26:09;;;;;;;24.02;11.57;;;8.40;99.90;;;;;;4994029;28;20217;-58
2024/01/25 10:28:35;;;;;;;17.65;10.65;;;8.30;99.90;;;;;;4993928;28;20219;-58
2024/01/25 10:31:04;;;;;;;15.20;10.23;;;8.40;99.90;;;;;;4993955;28;20189;-58
2024/01/25 10:33:30;;;;;;;14.98;10.18;;;8.40;99.90;;;;;;4993844;28;20205;-58
2024/01/25 10:36:01;;;;;;;14.50;10.73;;;8.40;99.90;;;;;;4993751;28;20583;-58
2024/01/25 10:38:33;;;;;;;13.80;10.07;;;8.40;99.90;;;;;;4993761;28;20685;-58
2024/01/25 10:41:03;;;;;;;17.63;11.73;;;8.40;99.90;;;;;;4993944;28;20177;-59
2024/01/25 10:43:32;;;;;;;17.27;10.85;;;8.40;99.90;;;;;;4997459;28;20671;-59
2024/01/25 10:45:59;;;;;;;13.82;9.80;;;8.40;99.90;;;;;;4997674;28;20205;-59
2024/01/25 10:48:26;;;;;;;16.17;11.13;;;8.60;99.90;;;;;;4997704;28;20173;-59
2024/01/25 10:50:53;;;;;;;16.80;10.93;;;8.60;99.90;;;;;;4997935;28;20639;-59
2024/01/25 10:53:19;;;;;;;17.45;11.63;;;8.60;99.90;;;;;;4997917;28;20175;-59
2024/01/25 10:55:46;;;;;;;19.10;11.20;;;8.60;99.90;;;;;;4997698;28;20177;-58
2024/01/25 10:58:14;;;;;;;15.68;11.45;;;8.60;99.90;;;;;;4997783;28;20174;-58
2024/01/25 11:00:40;;;;;;;17.67;11.27;;;8.70;99.90;;;;;;4997817;28;20233;-58
2024/01/25 11:03:09;;;;;;;17.88;11.48;;;8.60;99.90;;;;;;4997582;28;20185;-58
2024/01/25 11:05:35;;;;;;;22.30;13.35;;;8.70;99.90;;;;;;4997658;28;20220;-58
2024/01/25 11:08:01;;;;;;;20.05;12.60;;;8.70;99.90;;;;;;4997647;28;20178;-58
2024/01/25 11:10:28;;;;;;;20.70;13.15;;;8.70;99.90;;;;;;4997488;28;20219;-59
2024/01/25 11:12:59;;;;;;;21.08;12.32;;;8.80;99.90;;;;;;4997437;28;20686;-59
2024/01/25 11:15:34;;;;;;;29.73;13.50;;;8.80;99.90;;;;;;4997547;28;20183;-58
2024/01/25 11:18:01;;;;;;;21.00;12.93;;;8.90;99.90;;;;;;4996397;28;20215;-58
2024/01/25 11:20:28;;;;;;;28.58;14.10;;;8.90;99.90;;;;;;4978670;28;20194;-58
2024/01/25 11:22:59;;;;;;;24.70;13.70;;;9.00;99.90;;;;;;4997040;28;20251;-58
2024/01/25 11:25:28;;;;;;;26.42;13.18;;;9.00;99.90;;;;;;4996927;28;20208;-59
2024/01/25 11:27:54;;;;;;;30.48;15.18;;;9.00;99.90;;;;;;4996805;28;20261;-58
2024/01/25 11:30:20;;;;;;;25.85;13.40;;;9.10;99.90;;;;;;4996523;28;20256;-58
2024/01/25 11:32:47;;;;;;;25.92;13.73;;;9.10;99.90;;;;;;4997122;28;20316;-58
2024/01/25 11:35:16;;;;;;;35.55;15.30;;;9.20;99.90;;;;;;4996844;28;20235;-58
2024/01/25 11:37:44;;;;;;;31.00;14.05;;;9.30;99.90;;;;;;4995720;28;20177;-58
2024/01/25 11:40:11;;;;;;;31.40;14.27;;;9.40;99.90;;;;;;4996511;28;20209;-57
2024/01/25 11:42:36;;;;;;;25.55;13.25;;;9.50;99.90;;;;;;4996630;28;20200;-58
2024/01/25 11:45:04;;;;;;;31.40;13.82;;;9.50;99.90;;;;;;4996813;28;20213;-58
2024/01/25 11:47:30;;;;;;;24.00;14.32;;;9.60;99.90;;;;;;4996761;28;20223;-58
2024/01/25 11:49:56;;;;;;;27.75;13.48;;;9.60;99.90;;;;;;4992481;28;20653;-58
2024/01/25 11:52:21;;;;;;;29.42;13.02;;;9.60;99.90;;;;;;4977189;28;20639;-58
2024/01/25 11:54:47;;;;;;;30.27;13.00;;;9.70;99.90;;;;;;4975963;28;20179;-58
2024/01/25 11:57:13;;;;;;;28.60;13.20;;;9.70;99.90;;;;;;4978393;28;20177;-58
2024/01/25 11:59:39;;;;;;;29.15;13.93;;;9.80;99.90;;;;;;4996265;28;20208;-58
2024/01/25 12:02:04;;;;;;;28.00;13.45;;;9.80;99.90;;;;;;4996304;28;20236;-58
2024/01/25 12:04:30;;;;;;;29.15;13.77;;;9.90;99.90;;;;;;4982235;28;20186;-57
2024/01/25 12:06:56;;;;;;;26.42;12.60;;;9.70;99.90;;;;;;4976716;28;20241;-57
2024/01/25 12:09:22;;;;;;;31.27;13.82;;;9.80;99.90;;;;;;4996169;28;20660;-58
2024/01/25 12:11:50;;;;;;;33.95;13.32;;;9.70;99.90;;;;;;4996041;28;20651;-58
2024/01/25 12:14:16;;;;;;;27.13;13.00;;;9.90;99.90;;;;;;4996127;28;20239;-58
2024/01/25 12:16:42;;;;;;;34.33;13.73;;;10.00;99.90;;;;;;4996211;28;20665;-58
2024/01/25 12:19:08;;;;;;;26.83;13.43;;;10.00;99.90;;;;;;4981932;28;20174;-58
2024/01/25 12:21:34;;;;;;;26.33;12.90;;;10.00;99.90;;;;;;4976408;28;20173;-57
2024/01/25 12:24:00;;;;;;;30.90;13.20;;;10.00;99.90;;;;;;4976454;28;20268;-57
2024/01/25 12:26:26;;;;;;;25.27;11.63;;;10.00;99.90;;;;;;4977058;28;20285;-57
2024/01/25 12:28:51;;;;;;;26.83;12.73;;;10.10;99.90;;;;;;4996160;28;20174;-58
2024/01/25 12:31:17;;;;;;;25.60;11.73;;;10.30;99.90;;;;;;4996177;28;20188;-58
2024/01/25 12:33:43;;;;;;;24.42;11.73;;;10.40;99.90;;;;;;4995925;28;20184;-57
2024/01/25 12:36:09;;;;;;;24.55;11.95;;;10.30;99.90;;;;;;4995884;28;20232;-58
2024/01/25 12:38:35;;;;;;;31.27;12.13;;;10.40;99.90;;;;;;4996200;28;20169;-58